createdAt,value
2023-02-17T00:02:44.024Z,0
2023-02-17T00:07:44.022Z,0
2023-02-17T00:12:44.016Z,0
2023-02-17T00:17:46.016Z,0
2023-02-17T00:22:43.990Z,0
2023-02-17T00:27:47.067Z,0
2023-02-17T00:32:44.028Z,0
2023-02-17T00:37:44.020Z,0
2023-02-17T00:42:44.048Z,0
2023-02-17T00:47:44.043Z,0
2023-02-17T00:52:44.030Z,0
2023-02-17T00:57:44.009Z,0
2023-02-17T01:02:44.010Z,0
2023-02-17T01:07:43.987Z,0
2023-02-17T01:12:43.971Z,0
2023-02-17T01:22:46.591Z,0
2023-02-17T01:27:44.361Z,0
2023-02-17T01:32:44.168Z,0
2023-02-17T01:37:44.076Z,0
2023-02-17T01:42:45.509Z,0
2023-02-17T01:47:43.985Z,0
2023-02-17T01:52:44.016Z,0
2023-02-17T01:57:45.113Z,0
2023-02-17T02:02:44.102Z,0
2023-02-17T02:07:44.308Z,0
2023-02-17T02:12:44.023Z,0
2023-02-17T02:17:44.036Z,0
2023-02-17T02:22:44.030Z,0
2023-02-17T02:27:44.136Z,0
2023-02-17T02:32:44.522Z,0
2023-02-17T02:37:43.996Z,0
2023-02-17T02:42:44.009Z,0
2023-02-17T02:47:44.013Z,0
2023-02-17T02:52:44.065Z,0
2023-02-17T02:57:44.625Z,0
2023-02-17T03:02:44.095Z,0
2023-02-17T03:07:44.042Z,0
2023-02-17T03:12:44.278Z,0
2023-02-17T03:17:45.032Z,0
2023-02-17T03:22:44.009Z,0
2023-02-17T03:27:44.021Z,0
2023-02-17T03:32:44.032Z,0
2023-02-17T03:37:44.021Z,0
2023-02-17T03:42:44.039Z,0
2023-02-17T03:47:44.038Z,0
2023-02-17T03:52:44.012Z,0
2023-02-17T03:57:44.080Z,0
2023-02-17T04:02:45.047Z,0
2023-02-17T04:07:44.532Z,0
2023-02-17T04:12:44.568Z,0
2023-02-17T04:17:44.034Z,0
2023-02-17T04:22:44.062Z,0
2023-02-17T04:27:44.046Z,0
2023-02-17T04:32:44.127Z,0
2023-02-17T04:37:44.081Z,0
2023-02-17T04:42:45.024Z,0
2023-02-17T04:47:44.038Z,0
2023-02-17T04:52:44.047Z,0
2023-02-17T04:57:44.060Z,0
2023-02-17T05:02:44.059Z,0
2023-02-17T05:07:45.540Z,0
2023-02-17T05:12:44.029Z,0
2023-02-17T05:17:44.090Z,0
2023-02-17T05:22:47.124Z,0
2023-02-17T05:27:44.036Z,0
2023-02-17T05:32:44.015Z,0
2023-02-17T05:37:45.096Z,0
2023-02-17T05:42:44.059Z,0
2023-02-17T05:47:44.319Z,0
2023-02-17T05:52:44.199Z,0
2023-02-17T05:57:44.054Z,0
2023-02-17T06:02:44.118Z,0
2023-02-17T06:07:44.144Z,0
2023-02-17T06:12:45.026Z,0
2023-02-17T06:17:44.030Z,0
2023-02-17T06:22:44.154Z,0
2023-02-17T06:27:45.083Z,0
2023-02-17T06:32:44.083Z,0
2023-02-17T06:37:44.148Z,0
2023-02-17T06:42:44.080Z,0
2023-02-17T06:47:44.214Z,0
2023-02-17T06:52:44.545Z,267
2023-02-17T06:57:44.056Z,269
2023-02-17T07:02:44.177Z,270
2023-02-17T07:07:44.095Z,269
2023-02-17T07:12:44.053Z,275
2023-02-17T07:17:45.098Z,274
2023-02-17T07:22:45.607Z,270
2023-02-17T07:27:44.116Z,270
2023-02-17T07:32:44.138Z,271
2023-02-17T07:37:44.093Z,273
2023-02-17T07:42:44.037Z,272
2023-02-17T07:47:44.055Z,282
2023-02-17T07:52:44.105Z,285
2023-02-17T07:57:44.130Z,293
2023-02-17T08:02:44.031Z,289
2023-02-17T08:07:44.086Z,275
2023-02-17T08:12:44.029Z,274
2023-02-17T08:17:44.104Z,275
2023-02-17T08:22:44.050Z,281
2023-02-17T08:27:44.335Z,281
2023-02-17T08:32:44.061Z,285
2023-02-17T08:37:44.033Z,288
2023-02-17T08:42:44.316Z,284
2023-02-17T08:47:44.237Z,278
2023-02-17T08:52:44.111Z,277
2023-02-17T08:57:45.161Z,275
2023-02-17T09:02:44.089Z,274
2023-02-17T09:07:44.118Z,276
2023-02-17T09:12:44.064Z,279
2023-02-17T09:17:44.057Z,280
2023-02-17T09:22:44.153Z,278
2023-02-17T09:27:44.062Z,281
2023-02-17T09:32:44.085Z,282
2023-02-17T09:37:44.250Z,279
2023-02-17T09:42:44.079Z,282
2023-02-17T09:47:44.063Z,280
2023-02-17T09:52:44.143Z,280
2023-02-17T09:57:44.118Z,281
2023-02-17T10:02:44.097Z,281
2023-02-17T10:07:44.084Z,274
2023-02-17T10:12:44.086Z,277
2023-02-17T10:17:44.079Z,278
2023-02-17T10:22:44.138Z,274
2023-02-17T10:27:44.146Z,274
2023-02-17T10:32:44.443Z,277
2023-02-17T10:37:44.236Z,283
2023-02-17T10:42:44.595Z,288
2023-02-17T10:47:44.073Z,287
2023-02-17T10:52:44.135Z,306
2023-02-17T10:57:44.363Z,288
2023-02-17T11:02:44.540Z,297
2023-02-17T11:07:44.106Z,292
2023-02-17T11:12:44.106Z,293
2023-02-17T11:17:44.202Z,307
2023-02-17T11:22:44.123Z,284
2023-02-17T11:27:44.080Z,298
2023-02-17T11:32:44.140Z,292
2023-02-17T11:37:44.072Z,283
2023-02-17T11:42:45.147Z,278
2023-02-17T11:47:44.155Z,276
2023-02-17T11:52:44.055Z,289
2023-02-17T11:57:47.187Z,294
2023-02-17T12:02:44.120Z,285
2023-02-17T12:07:44.148Z,291
2023-02-17T12:12:44.088Z,293
2023-02-17T12:17:44.062Z,297
2023-02-17T12:22:44.139Z,305
2023-02-17T12:27:44.106Z,294
2023-02-17T12:32:44.080Z,278
2023-02-17T12:37:44.149Z,278
2023-02-17T12:42:44.145Z,277
2023-02-17T12:47:44.111Z,282
2023-02-17T12:52:44.170Z,282
2023-02-17T12:57:44.190Z,275
2023-02-17T13:02:44.193Z,273
2023-02-17T13:07:44.357Z,275
2023-02-17T13:12:44.151Z,274
2023-02-17T13:17:44.188Z,270
2023-02-17T13:22:44.136Z,273
2023-02-17T13:27:44.226Z,276
2023-02-17T13:32:44.136Z,279
2023-02-17T13:37:44.196Z,274
2023-02-17T13:42:44.299Z,276
2023-02-17T13:47:44.205Z,274
2023-02-17T13:52:44.332Z,280
2023-02-17T13:57:44.512Z,284
2023-02-17T14:02:44.210Z,278
2023-02-17T14:07:44.176Z,275
2023-02-17T14:12:44.130Z,280
2023-02-17T14:17:44.196Z,283
2023-02-17T14:22:55.965Z,287
2023-02-17T14:27:44.210Z,286
2023-02-17T14:32:45.329Z,298
2023-02-17T14:37:44.180Z,292
2023-02-17T14:42:44.201Z,288
2023-02-17T14:47:44.230Z,290
2023-02-17T14:52:44.483Z,296
2023-02-17T14:57:44.262Z,286
2023-02-17T15:02:44.240Z,278
2023-02-17T15:07:44.179Z,284
2023-02-17T15:12:44.292Z,284
2023-02-17T15:17:44.187Z,283
2023-02-17T15:22:46.450Z,284
2023-02-17T15:27:44.258Z,282
2023-02-17T15:32:44.152Z,284
2023-02-17T15:37:44.300Z,279
2023-02-17T15:42:44.250Z,275
2023-02-17T15:47:44.333Z,270
2023-02-17T15:52:44.202Z,269
2023-02-17T15:57:44.239Z,266
2023-02-17T16:02:44.320Z,265
2023-02-17T16:07:44.281Z,0
2023-02-17T16:12:44.174Z,0
2023-02-17T16:17:44.295Z,0
2023-02-17T16:22:44.291Z,0
2023-02-17T16:27:44.284Z,0
2023-02-17T16:32:44.296Z,0
2023-02-17T16:37:44.251Z,0
2023-02-17T16:42:44.317Z,0
2023-02-17T16:47:44.280Z,0
2023-02-17T16:52:44.218Z,0
2023-02-17T16:57:44.334Z,0
2023-02-17T17:02:44.190Z,0
2023-02-17T17:07:44.221Z,0
2023-02-17T17:12:44.167Z,0
2023-02-17T17:17:44.124Z,0
2023-02-17T17:22:44.184Z,0
2023-02-17T17:27:44.160Z,0
2023-02-17T17:32:44.220Z,0
2023-02-17T17:37:44.223Z,0
2023-02-17T17:42:44.190Z,0
2023-02-17T17:47:44.186Z,0
2023-02-17T17:52:44.201Z,0
2023-02-17T17:57:44.216Z,0
2023-02-17T18:02:44.734Z,0
2023-02-17T18:07:44.216Z,0
2023-02-17T18:12:44.206Z,0
2023-02-17T18:17:44.189Z,0
2023-02-17T18:22:44.261Z,0
2023-02-17T18:27:44.370Z,0
2023-02-17T18:32:45.217Z,0
2023-02-17T18:37:44.155Z,0
2023-02-17T18:42:44.159Z,0
2023-02-17T18:47:44.247Z,0
2023-02-17T18:52:44.484Z,0
2023-02-17T18:57:44.258Z,0
2023-02-17T19:02:44.268Z,0
2023-02-17T19:07:44.225Z,0
2023-02-17T19:12:44.356Z,0
2023-02-17T19:17:44.248Z,0
2023-02-17T19:22:44.988Z,0
2023-02-17T19:27:44.185Z,0
2023-02-17T19:32:44.366Z,0
2023-02-17T19:37:44.339Z,0
2023-02-17T19:42:44.253Z,0
2023-02-17T19:47:44.748Z,0
2023-02-17T19:52:44.189Z,0
2023-02-17T19:57:44.298Z,0
2023-02-17T20:02:45.308Z,0
2023-02-17T20:07:44.198Z,0
2023-02-17T20:12:44.235Z,0
2023-02-17T20:17:44.192Z,0
2023-02-17T20:22:44.299Z,0
2023-02-17T20:27:44.224Z,0
2023-02-17T20:32:44.276Z,0
2023-02-17T20:37:44.769Z,0
2023-02-17T20:42:44.279Z,0
2023-02-17T20:47:44.243Z,0
2023-02-17T20:52:44.224Z,0
2023-02-17T20:57:44.401Z,0
2023-02-17T21:02:44.617Z,0
2023-02-17T21:07:44.234Z,0
2023-02-17T21:12:44.197Z,0
2023-02-17T21:17:44.284Z,0
2023-02-17T21:22:45.267Z,0
2023-02-17T21:27:44.248Z,0
2023-02-17T21:32:44.253Z,0
2023-02-17T21:37:44.263Z,0
2023-02-17T21:42:47.261Z,0
2023-02-17T21:47:44.583Z,0
2023-02-17T21:52:44.242Z,0
2023-02-17T21:57:44.222Z,0
2023-02-17T22:02:45.247Z,0
2023-02-17T22:07:44.401Z,0
2023-02-17T22:12:44.232Z,0
2023-02-17T22:17:44.289Z,0
2023-02-17T22:22:44.202Z,0
2023-02-17T22:27:44.222Z,0
2023-02-17T22:32:44.239Z,0
2023-02-17T22:37:44.220Z,0
2023-02-17T22:42:44.182Z,0
2023-02-17T22:47:44.238Z,0
2023-02-17T22:52:44.241Z,0
2023-02-17T22:57:44.319Z,0
2023-02-17T23:02:44.318Z,0
2023-02-17T23:07:44.278Z,0
2023-02-17T23:12:45.435Z,0
2023-02-17T23:17:44.470Z,0
2023-02-17T23:22:44.650Z,0
2023-02-17T23:27:45.287Z,0
2023-02-17T23:32:44.576Z,0
2023-02-17T23:37:44.279Z,0
2023-02-17T23:42:44.299Z,0
2023-02-17T23:47:44.486Z,0
2023-02-17T23:52:44.349Z,0
2023-02-17T23:57:44.366Z,0
